createdAt,value
2019-03-28T00:02:27.778Z,8.63
2019-03-28T00:05:01.762Z,8.63
2019-03-28T00:07:36.057Z,8.66
2019-03-28T00:10:10.256Z,8.65
2019-03-28T00:12:44.445Z,8.66
2019-03-28T00:15:18.393Z,8.64
2019-03-28T00:17:52.383Z,8.65
2019-03-28T00:20:26.362Z,8.64
2019-03-28T00:23:25.012Z,8.62
2019-03-28T00:25:58.993Z,8.60
2019-03-28T00:28:32.942Z,8.58
2019-03-28T00:31:06.965Z,8.57
2019-03-28T00:33:40.957Z,8.55
2019-03-28T00:36:15.086Z,8.57
2019-03-28T00:38:49.056Z,8.55
2019-03-28T00:41:24.640Z,8.56
2019-03-28T00:43:58.704Z,8.55
2019-03-28T00:46:32.702Z,8.52
2019-03-28T00:49:06.589Z,8.53
2019-03-28T00:51:42.990Z,8.50
2019-03-28T00:54:16.177Z,8.49
2019-03-28T00:56:50.170Z,8.52
2019-03-28T00:59:24.337Z,8.49
2019-03-28T01:01:59.368Z,8.50
2019-03-28T01:04:33.357Z,8.52
2019-03-28T01:07:07.341Z,8.47
2019-03-28T01:09:41.307Z,8.47
2019-03-28T01:12:15.301Z,8.46
2019-03-28T01:14:49.283Z,8.46
2019-03-28T01:17:23.373Z,8.49
2019-03-28T01:19:57.457Z,8.48
2019-03-28T01:22:31.437Z,8.49
2019-03-28T01:25:05.843Z,8.50
2019-03-28T01:27:40.806Z,8.51
2019-03-28T01:30:14.803Z,8.50
2019-03-28T01:32:48.808Z,8.49
2019-03-28T01:35:23.224Z,8.50
2019-03-28T01:37:57.302Z,8.46
2019-03-28T01:40:32.266Z,8.47
2019-03-28T01:43:06.255Z,8.50
2019-03-28T01:45:40.359Z,8.50
2019-03-28T01:48:14.340Z,8.51
2019-03-28T01:50:48.322Z,8.43
2019-03-28T01:53:22.424Z,8.46
2019-03-28T01:55:56.924Z,8.46
2019-03-28T01:58:31.061Z,8.46
2019-03-28T02:01:05.037Z,8.48
2019-03-28T02:03:40.002Z,8.44
2019-03-28T02:06:14.001Z,8.41
2019-03-28T02:08:48.099Z,8.45
2019-03-28T02:11:22.082Z,8.41
2019-03-28T02:13:57.054Z,8.41
2019-03-28T02:16:31.046Z,8.41
2019-03-28T02:19:05.023Z,8.40
2019-03-28T02:21:39.024Z,8.42
2019-03-28T02:24:13.054Z,8.39
2019-03-28T02:26:47.011Z,8.37
2019-03-28T02:29:21.067Z,8.37
2019-03-28T02:31:55.027Z,8.35
2019-03-28T02:34:29.006Z,8.35
2019-03-28T02:37:02.993Z,8.36
2019-03-28T02:39:36.991Z,8.38
2019-03-28T02:42:10.992Z,8.39
2019-03-28T02:44:46.102Z,8.39
2019-03-28T02:47:20.110Z,8.35
2019-03-28T02:49:54.143Z,8.37
2019-03-28T02:52:28.158Z,8.36
2019-03-28T02:55:02.121Z,8.38
2019-03-28T02:57:41.628Z,8.37
2019-03-28T03:00:13.265Z,8.35
2019-03-28T03:02:47.245Z,8.33
2019-03-28T03:05:21.244Z,8.32
2019-03-28T03:07:55.278Z,8.34
2019-03-28T03:10:29.281Z,8.32
2019-03-28T03:13:03.251Z,8.32
2019-03-28T03:15:37.501Z,8.30
2019-03-28T03:18:11.515Z,8.32
2019-03-28T03:20:45.603Z,8.32
2019-03-28T03:23:20.104Z,8.33
2019-03-28T03:25:55.428Z,8.37
2019-03-28T03:28:30.887Z,8.38
2019-03-28T03:31:05.283Z,8.34
2019-03-28T03:33:39.358Z,8.34
2019-03-28T03:36:13.424Z,8.39
2019-03-28T03:38:48.111Z,8.37
2019-03-28T03:41:22.242Z,8.39
2019-03-28T03:43:56.412Z,8.43
2019-03-28T03:46:30.553Z,8.39
2019-03-28T03:49:04.876Z,8.41
2019-03-28T03:51:39.153Z,8.43
2019-03-28T03:54:13.202Z,8.44
2019-03-28T03:56:47.280Z,8.43
2019-03-28T03:59:21.255Z,8.43
2019-03-28T04:01:55.299Z,8.47
2019-03-28T04:04:29.425Z,8.47
2019-03-28T04:07:03.569Z,8.47
2019-03-28T04:09:37.587Z,8.48
2019-03-28T04:12:11.764Z,8.50
2019-03-28T04:14:45.798Z,8.48
2019-03-28T04:17:22.082Z,8.47
2019-03-28T04:19:56.122Z,8.51
2019-03-28T04:22:30.142Z,8.53
2019-03-28T04:25:04.167Z,8.54
2019-03-28T04:27:38.308Z,8.52
2019-03-28T04:30:12.444Z,8.52
2019-03-28T04:32:46.851Z,8.54
2019-03-28T04:35:21.183Z,8.55
2019-03-28T04:37:55.200Z,8.56
2019-03-28T04:40:29.191Z,8.58
2019-03-28T04:43:03.236Z,8.60
2019-03-28T04:45:37.296Z,8.57
2019-03-28T04:48:11.321Z,8.57
2019-03-28T04:50:46.458Z,8.54
2019-03-28T04:53:20.589Z,8.54
2019-03-28T04:55:54.814Z,8.57
2019-03-28T04:58:28.844Z,8.58
2019-03-28T05:01:02.929Z,8.56
2019-03-28T05:03:36.956Z,8.55
2019-03-28T05:06:11.057Z,8.54
2019-03-28T05:08:45.051Z,8.57
2019-03-28T05:11:19.597Z,8.56
2019-03-28T05:13:53.641Z,8.58
2019-03-28T05:16:27.759Z,8.38
2019-03-28T05:19:01.814Z,8.56
2019-03-28T05:21:35.859Z,8.59
2019-03-28T05:24:10.015Z,8.58
2019-03-28T05:26:44.068Z,8.62
2019-03-28T05:29:18.099Z,8.62
2019-03-28T05:31:52.167Z,8.65
2019-03-28T05:34:26.231Z,8.68
2019-03-28T05:37:00.250Z,8.69
2019-03-28T05:39:34.320Z,8.70
2019-03-28T05:42:08.602Z,8.68
2019-03-28T05:44:42.733Z,8.68
2019-03-28T05:47:17.422Z,8.68
2019-03-28T05:49:51.838Z,8.68
2019-03-28T05:52:25.890Z,8.69
2019-03-28T05:55:00.003Z,8.74
2019-03-28T05:57:34.007Z,8.78
2019-03-28T06:00:09.154Z,8.77
2019-03-28T06:02:43.139Z,8.83
2019-03-28T06:05:18.438Z,8.81
2019-03-28T06:07:53.145Z,8.87
2019-03-28T06:10:27.216Z,8.90
2019-03-28T06:13:01.259Z,8.84
2019-03-28T06:15:36.355Z,8.86
2019-03-28T06:18:10.411Z,8.94
2019-03-28T06:20:44.471Z,8.90
2019-03-28T06:23:18.551Z,9.00
2019-03-28T06:25:52.594Z,9.06
2019-03-28T06:28:26.650Z,9.16
2019-03-28T06:31:00.867Z,9.16
2019-03-28T06:33:34.867Z,9.17
2019-03-28T06:36:08.908Z,9.15
2019-03-28T06:38:44.117Z,9.17
2019-03-28T06:41:18.188Z,9.19
2019-03-28T06:43:52.414Z,9.23
2019-03-28T06:46:26.858Z,9.25
2019-03-28T06:49:00.944Z,9.29
2019-03-28T06:51:34.938Z,9.27
2019-03-28T06:54:09.107Z,9.30
2019-03-28T06:56:43.516Z,9.29
2019-03-28T06:59:17.739Z,9.28
2019-03-28T07:01:52.095Z,9.24
2019-03-28T07:04:26.627Z,9.26
2019-03-28T07:07:01.776Z,9.27
2019-03-28T07:09:35.855Z,9.26
2019-03-28T07:12:09.907Z,9.30
2019-03-28T07:14:44.017Z,9.36
2019-03-28T07:17:18.033Z,9.41
2019-03-28T07:19:52.039Z,9.45
2019-03-28T07:22:27.150Z,9.43
2019-03-28T07:25:01.151Z,9.46
2019-03-28T07:27:35.222Z,9.46
2019-03-28T07:30:10.564Z,9.46
2019-03-28T07:32:44.811Z,9.47
2019-03-28T07:35:18.913Z,9.46
2019-03-28T07:37:53.111Z,9.49
2019-03-28T07:40:27.887Z,9.48
2019-03-28T07:43:02.966Z,9.54
2019-03-28T07:45:37.176Z,9.46
2019-03-28T07:48:11.575Z,9.54
2019-03-28T07:50:46.039Z,9.58
2019-03-28T07:53:20.948Z,9.73
2019-03-28T07:55:59.173Z,9.81
2019-03-28T07:58:36.028Z,9.92
2019-03-28T08:01:10.145Z,9.96
2019-03-28T08:03:44.356Z,10.62
2019-03-28T08:06:18.455Z,10.58
2019-03-28T08:08:52.687Z,10.55
2019-03-28T08:11:27.058Z,10.62
2019-03-28T08:14:01.439Z,10.50
2019-03-28T08:16:35.611Z,10.81
2019-03-28T08:19:09.699Z,11.00
2019-03-28T08:21:44.079Z,11.11
2019-03-28T08:24:18.305Z,11.30
2019-03-28T08:26:52.503Z,11.60
2019-03-28T08:29:26.821Z,12.00
2019-03-28T08:32:01.243Z,11.98
2019-03-28T08:34:35.601Z,11.52
2019-03-28T08:37:09.815Z,11.61
2019-03-28T08:39:44.767Z,11.53
2019-03-28T08:42:19.587Z,11.46
2019-03-28T08:44:53.883Z,11.38
2019-03-28T08:47:27.911Z,11.28
2019-03-28T08:50:02.236Z,11.25
2019-03-28T08:52:36.331Z,11.26
2019-03-28T08:55:10.945Z,11.34
2019-03-28T08:57:45.019Z,11.44
2019-03-28T09:00:32.358Z,11.53
2019-03-28T09:02:55.365Z,11.51
2019-03-28T09:05:30.857Z,11.52
2019-03-28T09:08:05.028Z,11.65
2019-03-28T09:10:39.055Z,11.65
2019-03-28T09:13:13.087Z,11.61
2019-03-28T09:15:47.249Z,11.65
2019-03-28T09:18:21.347Z,11.67
2019-03-28T09:20:55.544Z,11.69
2019-03-28T09:23:29.682Z,12.06
2019-03-28T09:26:04.483Z,12.32
2019-03-28T09:28:40.589Z,12.78
2019-03-28T09:31:20.026Z,13.08
2019-03-28T09:33:50.215Z,13.07
2019-03-28T09:36:24.482Z,12.95
2019-03-28T09:38:58.738Z,12.81
2019-03-28T09:41:32.828Z,12.55
2019-03-28T09:44:06.903Z,12.45
2019-03-28T09:46:40.882Z,12.44
2019-03-28T09:49:15.136Z,12.32
2019-03-28T09:51:49.318Z,12.35
2019-03-28T09:54:24.588Z,12.40
2019-03-28T09:56:58.709Z,12.39
2019-03-28T09:59:32.826Z,12.41
2019-03-28T10:02:06.930Z,12.41
2019-03-28T10:04:42.020Z,12.39
2019-03-28T10:07:16.619Z,12.40
2019-03-28T10:09:50.778Z,12.44
2019-03-28T10:12:24.789Z,12.48
2019-03-28T10:14:58.929Z,12.53
2019-03-28T10:17:32.949Z,12.59
2019-03-28T10:20:07.660Z,12.61
2019-03-28T10:22:42.088Z,12.62
2019-03-28T10:25:16.166Z,12.57
2019-03-28T10:27:50.719Z,12.55
2019-03-28T10:30:42.845Z,12.51
2019-03-28T10:33:16.938Z,12.53
2019-03-28T10:35:51.448Z,12.59
2019-03-28T10:38:25.901Z,12.62
2019-03-28T10:40:59.865Z,12.57
2019-03-28T10:43:34.268Z,12.58
2019-03-28T10:46:08.283Z,12.62
2019-03-28T10:48:42.402Z,12.69
2019-03-28T10:51:16.393Z,12.74
2019-03-28T10:53:50.499Z,12.86
2019-03-28T10:56:24.734Z,12.96
2019-03-28T10:58:58.879Z,13.09
2019-03-28T11:01:48.160Z,13.09
2019-03-28T11:04:08.748Z,12.93
2019-03-28T11:06:42.741Z,12.98
2019-03-28T11:09:16.907Z,12.96
2019-03-28T11:11:50.897Z,12.79
2019-03-28T11:14:24.884Z,12.81
2019-03-28T11:16:58.920Z,12.86
2019-03-28T11:19:32.933Z,12.86
2019-03-28T11:22:07.331Z,12.86
2019-03-28T11:24:41.774Z,12.90
2019-03-28T11:27:15.913Z,12.91
2019-03-28T11:29:50.100Z,12.82
2019-03-28T11:32:24.212Z,12.78
2019-03-28T11:34:58.304Z,12.87
2019-03-28T11:37:32.748Z,12.89
2019-03-28T11:40:09.552Z,12.90
2019-03-28T11:42:44.342Z,12.97
2019-03-28T11:45:18.758Z,12.94
2019-03-28T11:47:52.957Z,13.03
2019-03-28T11:50:26.993Z,13.03
2019-03-28T11:53:01.130Z,13.07
2019-03-28T11:55:35.254Z,13.13
2019-03-28T11:58:09.768Z,13.11
2019-03-28T12:00:43.828Z,13.10
2019-03-28T12:03:17.959Z,13.17
2019-03-28T12:05:53.226Z,13.15
2019-03-28T12:08:27.812Z,13.16
2019-03-28T12:11:01.838Z,13.16
2019-03-28T12:13:44.565Z,13.21
2019-03-28T12:16:11.551Z,13.17
2019-03-28T12:18:45.892Z,13.17
2019-03-28T12:21:20.093Z,13.10
2019-03-28T12:23:55.202Z,13.13
2019-03-28T12:26:30.295Z,13.10
2019-03-28T12:29:05.883Z,13.04
2019-03-28T12:31:40.274Z,13.08
2019-03-28T12:34:15.350Z,13.12
2019-03-28T12:36:49.599Z,13.08
2019-03-28T12:39:23.761Z,13.01
2019-03-28T12:41:57.898Z,13.04
2019-03-28T12:44:32.086Z,12.98
2019-03-28T12:47:06.133Z,13.02
2019-03-28T12:49:41.341Z,13.00
2019-03-28T12:52:19.210Z,13.07
2019-03-28T12:54:56.591Z,13.08
2019-03-28T12:57:31.006Z,12.99
2019-03-28T13:00:06.836Z,13.07
2019-03-28T13:02:44.793Z,13.11
2019-03-28T13:05:20.255Z,13.10
2019-03-28T13:07:54.275Z,13.13
2019-03-28T13:10:28.486Z,13.19
2019-03-28T13:13:02.492Z,13.19
2019-03-28T13:15:37.012Z,13.25
2019-03-28T13:18:20.092Z,13.17
2019-03-28T13:20:54.493Z,13.13
2019-03-28T13:23:28.748Z,13.20
2019-03-28T13:26:04.813Z,13.26
2019-03-28T13:28:38.924Z,13.30
2019-03-28T13:31:13.076Z,13.32
2019-03-28T13:33:48.197Z,13.32
2019-03-28T13:36:22.412Z,13.31
2019-03-28T13:38:56.584Z,13.35
2019-03-28T13:41:30.787Z,13.40
2019-03-28T13:44:04.831Z,13.43
2019-03-28T13:46:39.474Z,13.43
2019-03-28T13:49:13.644Z,13.35
2019-03-28T13:51:47.985Z,13.36
2019-03-28T13:54:23.422Z,13.39
2019-03-28T13:56:58.544Z,13.41
2019-03-28T13:59:35.360Z,13.41
2019-03-28T14:02:08.934Z,13.46
2019-03-28T14:04:43.147Z,13.39
2019-03-28T14:07:17.665Z,13.30
2019-03-28T14:09:51.930Z,13.40
2019-03-28T14:12:25.951Z,13.36
2019-03-28T14:15:00.254Z,13.40
2019-03-28T14:17:35.126Z,13.49
2019-03-28T14:20:09.936Z,13.44
2019-03-28T14:22:44.079Z,13.48
2019-03-28T14:25:18.960Z,13.48
2019-03-28T14:27:52.988Z,13.42
2019-03-28T14:30:27.403Z,13.45
2019-03-28T14:33:11.185Z,13.33
2019-03-28T14:35:37.120Z,13.33
2019-03-28T14:38:11.951Z,13.42
2019-03-28T14:40:45.917Z,13.37
2019-03-28T14:43:19.949Z,13.28
2019-03-28T14:45:53.986Z,13.24
2019-03-28T14:48:28.012Z,13.18
2019-03-28T14:51:02.260Z,13.14
2019-03-28T14:53:36.298Z,13.14
2019-03-28T14:56:10.523Z,13.15
2019-03-28T14:58:44.812Z,13.18
2019-03-28T15:01:18.810Z,13.20
2019-03-28T15:03:52.801Z,13.17
2019-03-28T15:06:26.862Z,13.19
2019-03-28T15:09:00.886Z,13.20
2019-03-28T15:11:36.836Z,13.16
2019-03-28T15:14:10.829Z,13.13
2019-03-28T15:16:45.161Z,13.14
2019-03-28T15:19:19.214Z,13.12
2019-03-28T15:21:53.311Z,13.07
2019-03-28T15:24:27.440Z,12.89
2019-03-28T15:27:01.584Z,12.95
2019-03-28T15:29:35.591Z,12.93
2019-03-28T15:32:09.652Z,12.93
2019-03-28T15:34:43.735Z,12.93
2019-03-28T15:37:17.767Z,12.95
2019-03-28T15:39:51.844Z,12.88
2019-03-28T15:42:27.990Z,12.85
2019-03-28T15:45:01.653Z,12.84
2019-03-28T15:47:36.230Z,12.85
2019-03-28T15:50:10.443Z,12.81
2019-03-28T15:52:45.016Z,12.75
2019-03-28T15:55:19.069Z,12.76
2019-03-28T15:57:53.562Z,12.75
2019-03-28T16:00:29.290Z,12.73
2019-03-28T16:03:03.554Z,12.76
2019-03-28T16:05:37.769Z,12.75
2019-03-28T16:08:11.830Z,12.73
2019-03-28T16:11:09.108Z,12.71
2019-03-28T16:13:43.111Z,12.74
2019-03-28T16:16:17.384Z,12.74
2019-03-28T16:18:51.886Z,12.73
2019-03-28T16:21:26.838Z,12.72
2019-03-28T16:24:01.223Z,12.74
2019-03-28T16:26:35.258Z,12.71
2019-03-28T16:29:09.429Z,12.71
2019-03-28T16:31:43.620Z,12.74
2019-03-28T16:34:17.591Z,12.74
2019-03-28T16:36:52.727Z,12.72
2019-03-28T16:39:28.199Z,12.68
2019-03-28T16:42:02.208Z,12.65
2019-03-28T16:44:36.201Z,12.58
2019-03-28T16:47:10.813Z,12.51
2019-03-28T16:49:45.048Z,12.49
2019-03-28T16:52:19.259Z,12.51
2019-03-28T16:54:53.675Z,12.49
2019-03-28T16:57:27.703Z,12.46
2019-03-28T17:00:01.823Z,12.43
2019-03-28T17:02:35.969Z,12.39
2019-03-28T17:05:10.010Z,12.34
2019-03-28T17:07:44.080Z,12.31
2019-03-28T17:10:44.701Z,12.27
2019-03-28T17:13:18.868Z,12.25
2019-03-28T17:15:52.986Z,12.22
2019-03-28T17:18:27.061Z,12.20
2019-03-28T17:21:01.137Z,12.16
2019-03-28T17:23:35.257Z,12.14
2019-03-28T17:26:09.437Z,12.12
2019-03-28T17:28:43.551Z,12.11
2019-03-28T17:31:18.885Z,12.09
2019-03-28T17:33:53.388Z,12.07
2019-03-28T17:36:27.469Z,12.05
2019-03-28T17:39:01.501Z,12.00
2019-03-28T17:41:35.793Z,11.98
2019-03-28T17:44:09.996Z,11.95
2019-03-28T17:46:44.803Z,11.93
2019-03-28T17:49:19.368Z,11.88
2019-03-28T17:51:53.393Z,11.85
2019-03-28T17:54:27.519Z,11.82
2019-03-28T17:57:01.827Z,11.82
2019-03-28T17:59:35.961Z,11.81
2019-03-28T18:02:10.570Z,11.80
2019-03-28T18:04:48.113Z,11.82
2019-03-28T18:07:20.599Z,11.81
2019-03-28T18:09:55.029Z,11.77
2019-03-28T18:12:29.129Z,11.74
2019-03-28T18:15:03.713Z,11.73
2019-03-28T18:17:37.858Z,11.73
2019-03-28T18:20:12.180Z,11.71
2019-03-28T18:22:46.224Z,11.68
2019-03-28T18:25:20.252Z,11.66
2019-03-28T18:27:54.416Z,11.65
2019-03-28T18:30:28.736Z,11.59
2019-03-28T18:33:04.101Z,11.58
2019-03-28T18:35:39.196Z,11.55
2019-03-28T18:38:13.310Z,11.57
2019-03-28T18:40:47.511Z,11.50
2019-03-28T18:43:21.643Z,11.51
2019-03-28T18:45:57.815Z,11.46
2019-03-28T18:48:36.752Z,11.42
2019-03-28T18:51:10.902Z,11.40
2019-03-28T18:53:44.953Z,11.30
2019-03-28T18:56:19.032Z,11.25
2019-03-28T18:58:53.060Z,11.16
2019-03-28T19:01:27.124Z,11.13
2019-03-28T19:04:01.221Z,11.14
2019-03-28T19:06:36.546Z,11.06
2019-03-28T19:09:10.647Z,10.99
2019-03-28T19:11:44.803Z,10.90
2019-03-28T19:14:23.501Z,10.74
2019-03-28T19:16:57.569Z,10.70
2019-03-28T19:19:39.205Z,10.71
2019-03-28T19:22:07.431Z,10.66
2019-03-28T19:24:42.125Z,10.61
2019-03-28T19:27:16.992Z,10.59
2019-03-28T19:29:50.987Z,10.58
2019-03-28T19:32:25.159Z,10.58
2019-03-28T19:35:02.749Z,10.52
2019-03-28T19:37:34.881Z,10.47
2019-03-28T19:40:09.828Z,10.41
2019-03-28T19:42:44.309Z,10.36
2019-03-28T19:45:35.826Z,10.27
2019-03-28T19:48:09.790Z,10.24
2019-03-28T19:50:43.843Z,10.18
2019-03-28T19:53:18.208Z,10.10
2019-03-28T19:55:52.522Z,10.08
2019-03-28T19:58:26.530Z,10.06
2019-03-28T20:01:00.617Z,10.04
2019-03-28T20:03:34.964Z,9.97
2019-03-28T20:06:21.519Z,9.94
2019-03-28T20:08:45.120Z,9.86
2019-03-28T20:11:20.105Z,9.84
2019-03-28T20:13:54.296Z,9.79
2019-03-28T20:16:28.313Z,9.65
2019-03-28T20:19:02.553Z,9.60
2019-03-28T20:21:36.596Z,9.55
2019-03-28T20:24:10.630Z,9.60
2019-03-28T20:26:44.635Z,9.77
2019-03-28T20:29:18.675Z,9.57
2019-03-28T20:31:53.318Z,9.63
2019-03-28T20:34:35.134Z,9.61
2019-03-28T20:37:09.168Z,9.56
2019-03-28T20:39:43.292Z,9.49
2019-03-28T20:42:22.344Z,9.50
2019-03-28T20:44:57.107Z,9.44
2019-03-28T20:47:32.054Z,9.41
2019-03-28T20:50:11.305Z,9.14
2019-03-28T20:52:46.682Z,9.13
2019-03-28T20:55:20.865Z,9.13
2019-03-28T20:57:55.135Z,9.11
2019-03-28T21:00:48.673Z,9.11
2019-03-28T21:03:22.888Z,9.10
2019-03-28T21:05:57.186Z,9.10
2019-03-28T21:08:32.168Z,9.11
2019-03-28T21:11:06.439Z,9.05
2019-03-28T21:13:40.554Z,9.01
2019-03-28T21:16:14.580Z,9.00
2019-03-28T21:18:49.323Z,9.01
2019-03-28T21:21:27.009Z,9.04
2019-03-28T21:24:05.690Z,9.05
2019-03-28T21:26:41.068Z,9.05
2019-03-28T21:29:16.812Z,9.07
2019-03-28T21:31:52.554Z,9.07
2019-03-28T21:34:27.104Z,9.04
2019-03-28T21:37:01.278Z,9.06
2019-03-28T21:39:39.872Z,9.08
2019-03-28T21:42:29.879Z,9.11
2019-03-28T21:45:04.397Z,9.13
2019-03-28T21:47:39.994Z,9.16
2019-03-28T21:50:14.558Z,9.20
2019-03-28T21:52:53.479Z,9.26
2019-03-28T21:55:28.961Z,9.29
2019-03-28T21:58:03.079Z,9.35
2019-03-28T22:00:37.563Z,9.36
2019-03-28T22:03:16.872Z,9.40
2019-03-28T22:05:51.636Z,9.44
2019-03-28T22:08:26.383Z,9.46
2019-03-28T22:11:00.428Z,9.48
2019-03-28T22:13:35.402Z,9.48
2019-03-28T22:16:09.592Z,9.49
2019-03-28T22:18:43.690Z,9.52
2019-03-28T22:21:17.811Z,9.50
2019-03-28T22:23:51.933Z,9.54
2019-03-28T22:26:26.105Z,9.54
2019-03-28T22:29:01.264Z,9.55
2019-03-28T22:31:35.416Z,9.59
2019-03-28T22:34:19.049Z,9.61
2019-03-28T22:36:57.474Z,9.62
2019-03-28T22:39:30.922Z,9.63
2019-03-28T22:42:04.999Z,9.63
2019-03-28T22:44:39.038Z,9.62
2019-03-28T22:47:13.548Z,9.62
2019-03-28T22:49:47.602Z,9.64
2019-03-28T22:52:21.638Z,9.65
2019-03-28T22:54:55.793Z,9.65
2019-03-28T22:57:29.933Z,9.65
2019-03-28T23:00:04.342Z,9.67
2019-03-28T23:02:39.122Z,9.70
2019-03-28T23:05:14.234Z,9.69
2019-03-28T23:07:48.254Z,9.76
2019-03-28T23:10:22.353Z,9.77
2019-03-28T23:12:56.352Z,9.79
2019-03-28T23:15:30.580Z,9.80
2019-03-28T23:18:05.549Z,9.79
2019-03-28T23:20:39.596Z,9.80
2019-03-28T23:23:13.625Z,9.80
2019-03-28T23:25:47.860Z,9.83
2019-03-28T23:28:21.875Z,9.82
2019-03-28T23:30:55.918Z,9.81
2019-03-28T23:33:30.316Z,9.81
2019-03-28T23:36:05.054Z,9.84
2019-03-28T23:38:39.102Z,9.82
2019-03-28T23:41:13.158Z,9.84
2019-03-28T23:43:47.187Z,9.84
2019-03-28T23:46:21.222Z,9.84
2019-03-28T23:48:55.235Z,9.85
2019-03-28T23:51:29.274Z,9.83
2019-03-28T23:54:03.475Z,9.80
2019-03-28T23:56:37.527Z,9.78
2019-03-28T23:59:13.146Z,9.79
